createdAt,value
2019-05-03T05:36:45.924Z,80.96
2019-05-03T05:37:46.013Z,81.25
2019-05-03T05:38:46.102Z,81.25
2019-05-03T05:39:46.198Z,80.96
2019-05-03T05:40:46.289Z,80.68
2019-05-03T05:41:46.378Z,80.49
2019-05-03T05:42:46.470Z,80.01
2019-05-03T05:43:46.559Z,79.35
2019-05-03T05:44:46.648Z,79.35
2019-05-03T05:45:46.739Z,79.35
2019-05-03T05:46:46.833Z,79.44
2019-05-03T05:47:46.926Z,79.38
2019-05-03T05:48:47.017Z,78.91
2019-05-03T05:49:47.107Z,79.38
2019-05-03T05:50:47.201Z,79.10
2019-05-03T05:51:47.294Z,78.62
2019-05-03T05:52:47.385Z,78.23
2019-05-03T05:53:47.480Z,77.67
2019-05-03T05:54:47.570Z,75.81
2019-05-03T05:55:47.663Z,76.20
2019-05-03T05:56:47.759Z,76.64
2019-05-03T05:57:47.848Z,77.78
2019-05-03T05:58:47.941Z,77.78
2019-05-03T05:59:48.033Z,78.64
2019-05-03T06:00:48.125Z,78.35
2019-05-03T06:01:48.216Z,78.78
2019-05-03T06:02:48.311Z,79.83
2019-05-03T06:03:48.399Z,80.41
2019-05-03T06:04:48.492Z,80.22
2019-05-03T06:05:48.585Z,79.93
2019-05-03T06:06:48.683Z,78.31
2019-05-03T06:07:48.771Z,78.56
2019-05-03T06:08:48.875Z,78.17
2019-05-03T06:09:48.967Z,78.37
2019-05-03T06:10:49.064Z,78.46
2019-05-03T06:11:49.152Z,78.22
2019-05-03T06:12:49.242Z,78.50
2019-05-03T06:13:49.332Z,78.69
2019-05-03T06:14:49.428Z,78.08
2019-05-03T06:15:49.517Z,79.99
2019-05-03T06:16:49.610Z,81.03
2019-05-03T06:17:49.699Z,82.14
2019-05-03T06:18:49.790Z,83.09
2019-05-03T06:19:49.881Z,84.52
2019-05-03T06:20:49.973Z,84.99
2019-05-03T06:21:50.072Z,85.85
2019-05-03T06:22:50.157Z,86.70
2019-05-03T06:23:50.248Z,87.18
2019-05-03T06:24:50.341Z,87.75
2019-05-03T06:25:50.430Z,87.56
2019-05-03T06:26:50.524Z,87.37
2019-05-03T06:27:50.612Z,87.13
2019-05-03T06:28:50.706Z,87.61
2019-05-03T06:29:50.804Z,87.61
2019-05-03T06:30:50.887Z,88.56
2019-05-03T06:31:50.976Z,89.23
2019-05-03T06:32:51.069Z,88.66
2019-05-03T06:33:52.557Z,87.65
2019-05-03T06:34:51.253Z,87.18
2019-05-03T06:35:51.340Z,87.18
2019-05-03T06:36:51.646Z,87.75
2019-05-03T06:37:51.521Z,87.56
2019-05-03T06:38:51.612Z,87.56
2019-05-03T06:39:51.703Z,88.13
2019-05-03T06:40:51.794Z,87.46
2019-05-03T06:41:51.885Z,86.90
2019-05-03T06:42:54.924Z,86.75
2019-05-03T06:43:52.071Z,87.03
2019-05-03T06:44:54.113Z,85.22
2019-05-03T06:45:52.250Z,85.51
2019-05-03T06:46:52.344Z,85.51
2019-05-03T06:47:52.433Z,85.51
2019-05-03T06:48:54.235Z,84.94
2019-05-03T06:49:52.617Z,84.75
2019-05-03T06:50:52.710Z,84.84
2019-05-03T06:51:54.584Z,83.89
2019-05-03T06:52:54.690Z,83.03
2019-05-03T06:53:54.682Z,83.89
2019-05-03T06:54:55.226Z,84.75
2019-05-03T06:55:55.290Z,85.13
2019-05-03T06:56:55.362Z,84.65
2019-05-03T06:57:54.558Z,82.56
2019-05-03T06:58:54.859Z,81.85
2019-05-03T06:59:55.028Z,82.51
2019-05-03T07:00:55.326Z,83.51
2019-05-03T07:01:55.233Z,84.56
2019-05-03T07:02:54.591Z,84.94
2019-05-03T07:03:54.874Z,84.75
2019-05-03T07:04:56.102Z,83.22
2019-05-03T07:05:54.907Z,80.84
2019-05-03T07:06:55.135Z,79.32
2019-05-03T07:07:54.757Z,79.22
2019-05-03T07:08:54.967Z,79.80
2019-05-03T07:09:54.709Z,79.80
2019-05-03T07:10:55.004Z,79.46
2019-05-03T07:11:55.514Z,79.17
2019-05-03T07:12:54.810Z,79.46
2019-05-03T07:13:55.047Z,79.64
2019-05-03T07:14:54.921Z,79.78
2019-05-03T07:15:56.030Z,80.07
2019-05-03T07:16:55.371Z,79.97
2019-05-03T07:17:55.667Z,78.64
2019-05-03T07:18:58.097Z,77.59
2019-05-03T07:19:55.393Z,77.40
2019-05-03T07:20:57.044Z,75.87
2019-05-03T07:21:55.577Z,76.16
2019-05-03T07:22:56.007Z,75.64
2019-05-03T07:23:55.762Z,76.59
2019-05-03T07:24:55.854Z,78.22
2019-05-03T07:25:55.946Z,78.06
2019-05-03T07:26:58.933Z,78.06
2019-05-03T07:27:56.135Z,76.92
2019-05-03T07:28:56.217Z,75.16
2019-05-03T07:29:56.309Z,75.26
2019-05-03T07:30:56.407Z,75.64
2019-05-03T07:31:56.501Z,75.26
2019-05-03T07:32:56.593Z,74.50
2019-05-03T07:33:56.690Z,74.79
2019-05-03T07:34:56.783Z,74.12
2019-05-03T07:35:56.876Z,73.89
2019-05-03T07:36:56.970Z,75.42
2019-05-03T07:37:57.059Z,76.40
2019-05-03T07:38:57.150Z,76.88
2019-05-03T07:39:57.243Z,76.03
2019-05-03T07:40:57.338Z,76.25
2019-05-03T07:41:57.431Z,75.87
2019-05-03T07:42:57.519Z,75.20
2019-05-03T07:43:57.610Z,74.82
2019-05-03T07:44:57.706Z,75.01
2019-05-03T07:45:57.796Z,74.73
2019-05-03T07:46:57.888Z,72.16
2019-05-03T07:47:57.990Z,71.11
2019-05-03T07:48:58.072Z,72.25
2019-05-03T07:49:58.189Z,72.72
2019-05-03T07:50:58.261Z,74.16
2019-05-03T07:51:58.353Z,72.76
2019-05-03T07:52:58.443Z,72.00
2019-05-03T07:53:58.538Z,72.28
2019-05-03T07:54:58.638Z,71.52
2019-05-03T07:55:58.719Z,70.95
2019-05-03T07:56:58.810Z,70.79
2019-05-03T07:57:58.897Z,70.32
2019-05-03T07:59:03.002Z,70.32
2019-05-03T07:59:59.141Z,69.71
2019-05-03T08:01:06.222Z,68.76
2019-05-03T08:01:59.265Z,68.28
2019-05-03T08:02:59.360Z,69.20
2019-05-03T08:03:59.450Z,69.68
2019-05-03T08:04:59.541Z,70.63
2019-05-03T08:05:59.637Z,71.11
2019-05-03T08:06:59.726Z,69.20
2019-05-03T08:07:59.820Z,70.34
2019-05-03T08:08:59.909Z,71.01
2019-05-03T08:10:00.003Z,72.06
2019-05-03T08:11:00.094Z,72.63
2019-05-03T08:12:00.191Z,70.92
2019-05-03T08:13:00.280Z,70.34
2019-05-03T08:14:00.371Z,70.44
2019-05-03T08:15:00.463Z,70.82
2019-05-03T08:16:00.554Z,71.48
2019-05-03T08:17:00.642Z,71.48
2019-05-03T08:18:00.735Z,70.95
2019-05-03T08:19:00.826Z,70.09
2019-05-03T08:20:00.924Z,70.19
2019-05-03T08:21:01.021Z,69.62
2019-05-03T08:22:01.104Z,69.58
2019-05-03T08:23:01.216Z,69.77
2019-05-03T08:24:01.308Z,69.81
2019-05-03T08:25:01.404Z,70.67
2019-05-03T08:26:01.501Z,70.32
2019-05-03T08:27:01.591Z,70.51
2019-05-03T08:28:01.677Z,69.84
2019-05-03T08:29:13.327Z,67.46
2019-05-03T08:30:01.865Z,66.75
2019-05-03T08:31:01.957Z,66.41
2019-05-03T08:32:02.051Z,65.36
2019-05-03T08:33:02.142Z,64.85
2019-05-03T08:34:02.238Z,65.80
2019-05-03T08:35:02.329Z,65.99
2019-05-03T08:36:04.739Z,65.36
2019-05-03T08:37:02.520Z,65.36
2019-05-03T08:38:02.617Z,66.02
2019-05-03T08:39:02.731Z,65.42
2019-05-03T08:40:02.803Z,64.65
2019-05-03T08:41:02.896Z,65.39
2019-05-03T08:42:04.811Z,65.80
2019-05-03T08:43:05.034Z,66.47
2019-05-03T08:44:05.126Z,66.18
2019-05-03T08:45:04.517Z,66.05
2019-05-03T08:46:04.608Z,66.94
2019-05-03T08:47:05.192Z,66.85
2019-05-03T08:48:05.399Z,66.12
2019-05-03T08:49:05.214Z,64.37
2019-05-03T08:50:05.474Z,64.69
2019-05-03T08:51:04.596Z,65.17
2019-05-03T08:52:05.432Z,64.40
2019-05-03T08:53:05.086Z,63.73
2019-05-03T08:54:04.750Z,64.34
2019-05-03T08:55:05.255Z,63.67
2019-05-03T08:56:05.312Z,63.86
2019-05-03T08:57:06.244Z,64.15
2019-05-03T08:58:05.230Z,63.39
2019-05-03T08:59:04.783Z,63.20
2019-05-03T09:00:05.283Z,63.60
2019-05-03T09:01:05.487Z,63.42
2019-05-03T09:02:14.132Z,63.51
2019-05-03T09:03:05.297Z,62.78
2019-05-03T09:04:05.193Z,62.59
2019-05-03T09:05:05.230Z,61.44
2019-05-03T09:06:05.209Z,61.54
2019-05-03T09:07:05.578Z,61.35
2019-05-03T09:08:05.786Z,59.66
2019-05-03T09:09:05.497Z,59.56
2019-05-03T09:10:05.617Z,58.76
2019-05-03T09:11:12.904Z,59.12
2019-05-03T09:12:05.750Z,60.93
2019-05-03T09:13:06.478Z,61.72
2019-05-03T09:14:05.944Z,61.92
2019-05-03T09:15:06.038Z,61.25
2019-05-03T09:16:06.148Z,58.48
2019-05-03T09:17:06.225Z,58.29
2019-05-03T09:18:06.330Z,59.24
2019-05-03T09:19:06.409Z,59.72
2019-05-03T09:20:06.506Z,59.91
2019-05-03T09:21:06.601Z,58.76
2019-05-03T09:22:06.728Z,59.24
2019-05-03T09:23:06.783Z,59.05
2019-05-03T09:24:06.886Z,59.44
2019-05-03T09:25:06.966Z,59.02
2019-05-03T09:26:07.062Z,60.07
2019-05-03T09:27:07.167Z,59.78
2019-05-03T09:28:07.264Z,61.54
2019-05-03T09:29:07.357Z,62.88
2019-05-03T09:30:07.446Z,63.73
2019-05-03T09:31:07.559Z,62.78
2019-05-03T09:32:07.656Z,63.54
2019-05-03T09:33:09.208Z,63.54
2019-05-03T09:34:08.401Z,63.73
2019-05-03T09:35:07.931Z,63.07
2019-05-03T09:36:08.024Z,63.73
2019-05-03T09:37:08.112Z,63.83
2019-05-03T09:38:08.211Z,63.73
2019-05-03T09:39:08.308Z,63.07
2019-05-03T09:40:08.387Z,62.88
2019-05-03T09:41:08.519Z,63.10
2019-05-03T09:42:08.576Z,63.76
2019-05-03T09:43:08.662Z,63.76
2019-05-03T09:44:08.757Z,62.84
2019-05-03T09:45:08.849Z,61.69
2019-05-03T09:46:08.937Z,60.64
2019-05-03T09:47:09.039Z,60.42
2019-05-03T09:48:09.132Z,60.61
2019-05-03T09:49:13.220Z,60.21
2019-05-03T09:50:09.320Z,62.11
2019-05-03T09:51:09.414Z,61.92
2019-05-03T09:52:09.504Z,62.21
2019-05-03T09:53:09.595Z,61.86
2019-05-03T09:54:09.698Z,62.05
2019-05-03T09:55:09.792Z,61.00
2019-05-03T09:56:09.890Z,61.10
2019-05-03T09:57:09.973Z,61.29
2019-05-03T09:58:10.072Z,61.00
2019-05-03T09:59:10.163Z,61.00
2019-05-03T10:00:10.258Z,60.81
2019-05-03T10:01:10.357Z,61.19
2019-05-03T10:02:10.451Z,61.19
2019-05-03T10:03:10.547Z,61.47
2019-05-03T10:04:10.633Z,62.05
2019-05-03T10:05:10.735Z,61.95
2019-05-03T10:06:10.822Z,60.52
2019-05-03T10:07:10.916Z,58.99
2019-05-03T10:08:11.012Z,59.56
2019-05-03T10:09:11.105Z,60.07
2019-05-03T10:10:11.206Z,60.46
2019-05-03T10:11:11.287Z,59.63
2019-05-03T10:12:11.389Z,58.10
2019-05-03T10:13:15.045Z,57.90
2019-05-03T10:14:11.581Z,57.07
2019-05-03T10:15:11.677Z,56.88
2019-05-03T10:16:11.787Z,56.12
2019-05-03T10:17:11.866Z,55.64
2019-05-03T10:18:11.962Z,55.07
2019-05-03T10:19:14.313Z,56.40
2019-05-03T10:20:12.159Z,56.15
2019-05-03T10:21:14.658Z,56.15
2019-05-03T10:22:12.318Z,55.86
2019-05-03T10:23:12.413Z,56.43
2019-05-03T10:24:12.497Z,55.38
2019-05-03T10:25:12.604Z,54.93
2019-05-03T10:26:14.691Z,54.16
2019-05-03T10:27:12.778Z,54.16
2019-05-03T10:28:12.890Z,53.08
2019-05-03T10:29:15.113Z,53.08
2019-05-03T10:30:14.472Z,53.69
2019-05-03T10:31:13.159Z,53.97
2019-05-03T10:32:15.053Z,53.97
2019-05-03T10:33:15.530Z,53.78
2019-05-03T10:34:15.439Z,53.71
2019-05-03T10:35:15.158Z,53.62
2019-05-03T10:36:15.379Z,53.33
2019-05-03T10:37:15.157Z,52.95
2019-05-03T10:38:15.168Z,52.56
2019-05-03T10:39:15.491Z,53.04
2019-05-03T10:40:14.034Z,53.14
2019-05-03T10:41:14.143Z,52.95
2019-05-03T10:42:14.229Z,52.66
2019-05-03T10:43:14.321Z,52.28
2019-05-03T10:44:15.114Z,52.85
2019-05-03T10:45:15.259Z,52.15
2019-05-03T10:46:15.960Z,52.44
2019-05-03T10:47:14.813Z,52.15
2019-05-03T10:48:15.513Z,52.83
2019-05-03T10:49:15.404Z,52.92
2019-05-03T10:50:15.577Z,53.02
2019-05-03T10:51:15.902Z,52.44
2019-05-03T10:52:15.204Z,52.54
2019-05-03T10:53:15.469Z,51.99
2019-05-03T10:54:15.414Z,51.97
2019-05-03T10:55:15.874Z,52.13
2019-05-03T10:56:22.680Z,52.29
2019-05-03T10:57:15.997Z,54.08
2019-05-03T10:58:16.177Z,54.94
2019-05-03T10:59:15.892Z,55.42
2019-05-03T11:00:41.573Z,55.80
2019-05-03T11:01:16.082Z,55.71
2019-05-03T11:02:16.186Z,56.28
2019-05-03T11:03:16.285Z,55.42
2019-05-03T11:04:16.382Z,55.61
2019-05-03T11:05:16.476Z,56.09
2019-05-03T11:06:16.573Z,56.18
2019-05-03T11:07:16.663Z,55.99
2019-05-03T11:08:16.769Z,56.12
2019-05-03T11:09:16.860Z,55.32
2019-05-03T11:10:16.955Z,54.37
2019-05-03T11:11:17.053Z,54.37
2019-05-03T11:12:17.146Z,53.99
2019-05-03T11:13:17.242Z,53.53
2019-05-03T11:14:17.330Z,53.06
2019-05-03T11:15:17.424Z,52.96
2019-05-03T11:16:17.511Z,52.87
2019-05-03T11:17:17.619Z,52.58
2019-05-03T11:18:17.723Z,53.06
2019-05-03T11:19:17.813Z,52.77
2019-05-03T11:20:28.189Z,52.77
2019-05-03T11:21:27.942Z,53.25
2019-05-03T11:22:18.101Z,52.67
2019-05-03T11:23:18.201Z,52.77
2019-05-03T11:24:18.288Z,52.29
2019-05-03T11:25:18.376Z,53.25
2019-05-03T11:26:19.333Z,52.84
2019-05-03T11:27:18.570Z,53.29
2019-05-03T11:28:19.222Z,54.27
2019-05-03T11:29:18.766Z,54.34
2019-05-03T11:30:19.322Z,54.32
2019-05-03T11:31:18.938Z,54.91
2019-05-03T11:32:19.369Z,55.30
2019-05-03T11:33:19.142Z,55.30
2019-05-03T11:34:22.394Z,55.52
2019-05-03T11:35:19.340Z,55.23
2019-05-03T11:36:19.435Z,54.47
2019-05-03T11:37:19.521Z,54.30
2019-05-03T11:38:19.626Z,53.25
2019-05-03T11:39:19.730Z,50.67
2019-05-03T11:40:19.807Z,50.29
2019-05-03T11:41:30.303Z,50.98
2019-05-03T11:42:20.016Z,50.41
2019-05-03T11:43:20.121Z,49.55
2019-05-03T11:44:20.217Z,48.78
2019-05-03T11:45:20.311Z,49.35
2019-05-03T11:46:20.397Z,48.42
2019-05-03T11:47:20.502Z,47.94
2019-05-03T11:48:20.585Z,48.04
2019-05-03T11:49:20.679Z,47.75
2019-05-03T11:50:20.774Z,47.85
2019-05-03T11:51:20.869Z,48.16
2019-05-03T11:52:20.965Z,47.68
2019-05-03T11:53:21.053Z,47.30
2019-05-03T11:54:21.167Z,46.82
2019-05-03T11:55:21.248Z,46.34
2019-05-03T11:56:22.339Z,46.17
2019-05-03T11:57:21.439Z,46.75
2019-05-03T11:58:21.540Z,46.65
2019-05-03T11:59:21.617Z,46.46
2019-05-03T12:00:21.713Z,45.21
2019-05-03T12:01:21.797Z,44.54
2019-05-03T12:02:21.900Z,44.54
2019-05-03T12:03:22.000Z,44.93
2019-05-03T12:04:22.105Z,44.26
2019-05-03T12:05:24.350Z,43.77
2019-05-03T12:06:22.310Z,43.97
2019-05-03T12:07:36.517Z,44.73
2019-05-03T12:08:22.500Z,45.31
2019-05-03T12:09:22.596Z,45.72
2019-05-03T12:10:37.104Z,45.62
2019-05-03T12:11:24.419Z,45.33
2019-05-03T12:12:24.495Z,45.04
2019-05-03T12:13:24.562Z,44.73
2019-05-03T12:14:24.491Z,45.84
2019-05-03T12:15:23.149Z,47.53
2019-05-03T12:16:34.884Z,47.61
2019-05-03T12:17:28.552Z,47.34
2019-05-03T12:18:25.123Z,47.73
2019-05-03T12:19:30.443Z,48.21
2019-05-03T12:20:26.817Z,48.11
2019-05-03T12:21:26.456Z,47.34
2019-05-03T12:22:26.085Z,46.84
2019-05-03T12:23:25.822Z,47.80
2019-05-03T12:24:26.311Z,48.18
2019-05-03T12:25:26.143Z,48.66
2019-05-03T12:26:27.121Z,49.14
2019-05-03T12:27:24.435Z,48.49
2019-05-03T12:28:25.669Z,48.11
2019-05-03T12:29:24.669Z,46.77
2019-05-03T12:30:27.464Z,46.67
2019-05-03T12:31:36.273Z,46.39
2019-05-03T12:32:25.173Z,46.58
2019-05-03T12:33:25.991Z,46.48
2019-05-03T12:34:25.635Z,46.80
2019-05-03T12:35:25.120Z,46.89
2019-05-03T12:36:25.218Z,46.41
2019-05-03T12:37:25.305Z,46.41
2019-05-03T12:38:25.667Z,46.51
2019-05-03T12:39:29.973Z,46.31
2019-05-03T12:40:25.659Z,46.41
2019-05-03T12:41:25.706Z,46.22
2019-05-03T12:42:25.801Z,46.25
2019-05-03T12:43:25.888Z,45.76
2019-05-03T12:44:26.003Z,45.29
2019-05-03T12:45:26.076Z,45.76
2019-05-03T12:46:26.353Z,45.67
2019-05-03T12:47:26.263Z,44.71
2019-05-03T12:48:26.358Z,44.64
2019-05-03T12:49:26.453Z,43.77
2019-05-03T12:50:26.546Z,43.90
2019-05-03T12:51:26.640Z,44.47
2019-05-03T12:52:27.531Z,43.32
2019-05-03T12:53:26.832Z,42.65
2019-05-03T12:54:26.929Z,42.34
2019-05-03T12:55:27.027Z,43.39
2019-05-03T12:56:32.736Z,44.04
2019-05-03T12:57:27.224Z,44.52
2019-05-03T12:58:27.332Z,45.29
2019-05-03T12:59:27.420Z,45.09
2019-05-03T13:00:27.501Z,44.43
2019-05-03T13:01:40.257Z,43.76
2019-05-03T13:02:27.693Z,43.47
2019-05-03T13:03:27.777Z,43.85
2019-05-03T13:04:27.891Z,43.56
2019-05-03T13:05:27.988Z,43.27
2019-05-03T13:06:28.082Z,43.37
2019-05-03T13:07:28.188Z,43.47
2019-05-03T13:08:28.289Z,43.37
2019-05-03T13:09:28.374Z,43.37
2019-05-03T13:10:28.468Z,43.49
2019-05-03T13:11:28.574Z,43.18
2019-05-03T13:12:28.665Z,43.56
2019-05-03T13:13:28.762Z,43.56
2019-05-03T13:14:28.848Z,43.95
2019-05-03T13:15:28.950Z,44.52
2019-05-03T13:16:29.033Z,44.23
2019-05-03T13:17:29.136Z,44.64
2019-05-03T13:18:29.235Z,43.97
2019-05-03T13:19:29.332Z,43.77
2019-05-03T13:20:29.427Z,43.20
2019-05-03T13:21:29.522Z,43.59
2019-05-03T13:22:29.615Z,43.27
2019-05-03T13:23:29.717Z,43.26
2019-05-03T13:24:29.799Z,43.71
2019-05-03T13:25:29.899Z,44.93
2019-05-03T13:26:29.997Z,46.34
2019-05-03T13:27:30.112Z,47.39
2019-05-03T13:28:30.188Z,47.97
2019-05-03T13:29:30.278Z,47.42
2019-05-03T13:30:30.381Z,46.94
2019-05-03T13:31:30.467Z,45.41
2019-05-03T13:32:30.563Z,45.24
2019-05-03T13:33:30.663Z,44.67
2019-05-03T13:34:30.761Z,45.65
2019-05-03T13:35:30.852Z,44.79
2019-05-03T13:36:30.955Z,44.98
2019-05-03T13:37:31.057Z,44.43
2019-05-03T13:38:31.144Z,43.56
2019-05-03T13:39:31.229Z,43.47
2019-05-03T13:40:31.322Z,43.66
2019-05-03T13:41:31.431Z,43.27
2019-05-03T13:42:31.502Z,43.56
2019-05-03T13:43:31.623Z,43.37
2019-05-03T13:44:31.716Z,43.44
2019-05-03T13:45:31.805Z,44.67
2019-05-03T13:46:31.895Z,45.72
2019-05-03T13:47:32.017Z,45.84
2019-05-03T13:48:42.803Z,45.72
2019-05-03T13:49:32.179Z,45.74
2019-05-03T13:50:32.275Z,44.67
2019-05-03T13:51:32.363Z,44.57
2019-05-03T13:52:34.459Z,45.07
2019-05-03T13:53:34.683Z,44.69
2019-05-03T13:54:34.633Z,44.50
2019-05-03T13:55:32.751Z,44.04
2019-05-03T13:56:35.141Z,43.83
2019-05-03T13:57:35.230Z,43.37
2019-05-03T13:58:33.063Z,42.49
2019-05-03T13:59:33.170Z,42.60
2019-05-03T14:00:34.602Z,43.18
2019-05-03T14:01:33.343Z,42.80
2019-05-03T14:02:35.346Z,43.37
2019-05-03T14:03:35.204Z,43.26
2019-05-03T14:04:42.772Z,43.35
2019-05-03T14:05:35.208Z,43.83
2019-05-03T14:06:36.558Z,43.80
2019-05-03T14:07:35.373Z,43.73
2019-05-03T14:08:35.023Z,44.59
2019-05-03T14:09:34.793Z,44.50
2019-05-03T14:10:36.010Z,44.50
2019-05-03T14:11:35.340Z,44.50
2019-05-03T14:12:35.053Z,43.37
2019-05-03T14:13:35.396Z,43.56
2019-05-03T14:14:34.966Z,43.56
2019-05-03T14:15:34.928Z,43.27
2019-05-03T14:16:34.749Z,43.30
2019-05-03T14:17:34.849Z,42.91
2019-05-03T14:18:35.296Z,42.51
2019-05-03T14:19:35.039Z,43.08
2019-05-03T14:20:35.202Z,42.99
2019-05-03T14:21:35.232Z,43.37
2019-05-03T14:22:35.747Z,43.27
2019-05-03T14:23:35.415Z,43.37
2019-05-03T14:24:35.514Z,43.37
2019-05-03T14:25:35.609Z,42.82
2019-05-03T14:26:35.707Z,43.10
2019-05-03T14:27:35.802Z,42.90
2019-05-03T14:28:35.897Z,43.37
2019-05-03T14:29:35.987Z,43.18
2019-05-03T14:30:36.089Z,43.37
2019-05-03T14:31:36.178Z,43.30
2019-05-03T14:32:36.291Z,42.58
2019-05-03T14:33:36.384Z,43.06
2019-05-03T14:34:36.486Z,43.73
2019-05-03T14:35:36.576Z,43.44
2019-05-03T14:36:36.680Z,43.73
2019-05-03T14:37:37.864Z,43.27
2019-05-03T14:38:36.864Z,43.27
2019-05-03T14:39:36.955Z,43.27
2019-05-03T14:40:37.047Z,43.27
2019-05-03T14:41:37.190Z,42.13
2019-05-03T14:42:37.269Z,42.13
2019-05-03T14:43:37.368Z,41.74
2019-05-03T14:44:37.470Z,41.94
2019-05-03T14:45:37.565Z,42.53
2019-05-03T14:46:37.665Z,42.53
2019-05-03T14:47:37.757Z,43.10
2019-05-03T14:48:37.849Z,42.05
2019-05-03T14:49:37.946Z,41.86
2019-05-03T14:50:38.034Z,42.34
2019-05-03T14:51:38.130Z,42.34
2019-05-03T14:52:38.238Z,42.24
2019-05-03T14:53:38.353Z,42.63
2019-05-03T14:54:38.420Z,43.03
2019-05-03T14:55:38.506Z,42.27
2019-05-03T14:56:38.600Z,42.36
2019-05-03T14:57:38.699Z,42.27
2019-05-03T14:58:38.794Z,41.97
2019-05-03T14:59:38.917Z,42.17
2019-05-03T15:00:39.011Z,41.96
2019-05-03T15:01:39.130Z,42.14
2019-05-03T15:02:43.638Z,42.14
2019-05-03T15:03:39.334Z,42.14
2019-05-03T15:04:39.430Z,41.96
2019-05-03T15:05:39.524Z,42.32
2019-05-03T15:06:39.627Z,42.68
2019-05-03T15:07:39.722Z,43.44
2019-05-03T15:08:39.815Z,43.73
2019-05-03T15:09:39.916Z,43.83
2019-05-03T15:10:40.009Z,43.92
2019-05-03T15:11:40.097Z,43.66
2019-05-03T15:12:40.191Z,43.66
2019-05-03T15:13:40.287Z,43.47
2019-05-03T15:14:40.384Z,42.91
2019-05-03T15:15:40.486Z,43.01
2019-05-03T15:16:40.573Z,42.91
2019-05-03T15:17:40.667Z,42.60
2019-05-03T15:18:40.764Z,42.99
2019-05-03T15:19:40.874Z,41.27
2019-05-03T15:20:41.273Z,41.55
2019-05-03T15:21:41.036Z,42.32
2019-05-03T15:22:41.145Z,42.13
2019-05-03T15:23:41.228Z,42.82
2019-05-03T15:24:41.326Z,42.63
2019-05-03T15:25:41.420Z,43.10
2019-05-03T15:26:41.515Z,42.14
2019-05-03T15:27:41.618Z,41.57
2019-05-03T15:28:41.705Z,40.71
2019-05-03T15:29:41.803Z,40.61
2019-05-03T15:30:41.909Z,41.31
2019-05-03T15:31:42.028Z,42.05
2019-05-03T15:32:54.727Z,41.38
2019-05-03T15:33:42.196Z,41.09
2019-05-03T15:34:44.529Z,40.81
2019-05-03T15:35:44.527Z,40.90
2019-05-03T15:36:42.483Z,40.71
2019-05-03T15:37:42.583Z,40.69
2019-05-03T15:38:49.842Z,40.88
2019-05-03T15:39:45.000Z,41.84
2019-05-03T15:40:42.911Z,41.46
2019-05-03T15:41:44.876Z,41.74
2019-05-03T15:42:45.068Z,42.13
2019-05-03T15:43:45.188Z,42.41
2019-05-03T15:44:45.026Z,41.74
2019-05-03T15:45:45.038Z,41.94
2019-05-03T15:46:45.015Z,42.22
2019-05-03T15:47:43.589Z,42.13
2019-05-03T15:48:45.706Z,43.08
2019-05-03T15:49:44.797Z,43.08
2019-05-03T15:50:44.655Z,42.13
2019-05-03T15:51:44.627Z,41.65
2019-05-03T15:52:44.477Z,42.41
2019-05-03T15:53:44.455Z,42.03
2019-05-03T15:54:44.522Z,42.27
2019-05-03T15:55:44.352Z,42.97
2019-05-03T15:56:44.925Z,42.77
2019-05-03T15:57:44.742Z,43.23
2019-05-03T15:58:46.816Z,42.94
2019-05-03T15:59:44.732Z,43.52
2019-05-03T16:00:44.861Z,44.00
2019-05-03T16:01:44.923Z,43.52
2019-05-03T16:02:45.016Z,43.80
2019-05-03T16:03:45.110Z,43.62
2019-05-03T16:04:45.210Z,43.43
2019-05-03T16:05:45.301Z,43.54
2019-05-03T16:06:45.395Z,43.35
2019-05-03T16:07:45.489Z,43.06
2019-05-03T16:08:45.582Z,42.77
2019-05-03T16:09:45.678Z,42.40
2019-05-03T16:10:45.844Z,41.82
2019-05-03T16:11:45.872Z,42.30
2019-05-03T16:12:45.966Z,43.06
2019-05-03T16:13:46.065Z,43.08
2019-05-03T16:14:46.153Z,42.99
2019-05-03T16:15:46.250Z,42.99
2019-05-03T16:16:46.344Z,43.08
2019-05-03T16:17:46.439Z,42.22
2019-05-03T16:18:46.534Z,41.96
2019-05-03T16:19:47.722Z,42.53
2019-05-03T16:20:46.722Z,42.51
2019-05-03T16:21:46.820Z,41.94
2019-05-03T16:22:46.910Z,42.99
2019-05-03T16:23:47.005Z,42.90
2019-05-03T16:24:47.183Z,42.80
2019-05-03T16:25:47.197Z,43.08
2019-05-03T16:26:47.285Z,43.08
2019-05-03T16:27:47.398Z,42.90
2019-05-03T16:28:47.476Z,43.08
2019-05-03T16:29:47.568Z,43.08
2019-05-03T16:30:47.674Z,43.08
2019-05-03T16:31:47.760Z,42.99
2019-05-03T16:32:47.856Z,43.37
2019-05-03T16:33:47.950Z,43.27
2019-05-03T16:34:48.042Z,43.08
2019-05-03T16:35:48.133Z,42.60
2019-05-03T16:36:48.227Z,42.22
2019-05-03T16:37:48.325Z,42.97
2019-05-03T16:38:48.419Z,43.35
2019-05-03T16:39:48.514Z,43.73
2019-05-03T16:40:48.609Z,43.63
2019-05-03T16:41:48.703Z,43.26
2019-05-03T16:42:48.797Z,43.35
2019-05-03T16:43:48.891Z,43.44
2019-05-03T16:44:48.989Z,43.26
2019-05-03T16:45:49.083Z,43.26
2019-05-03T16:46:49.178Z,43.73
2019-05-03T16:47:49.273Z,43.54
2019-05-03T16:48:49.365Z,43.54
2019-05-03T16:49:49.462Z,43.54
2019-05-03T16:50:49.555Z,43.73
2019-05-03T16:51:49.646Z,43.73
2019-05-03T16:52:49.745Z,43.44
2019-05-03T16:53:49.848Z,43.08
2019-05-03T16:54:49.936Z,43.06
2019-05-03T16:55:50.030Z,42.94
2019-05-03T16:56:50.126Z,43.62
2019-05-03T16:57:50.216Z,43.62
2019-05-03T16:58:50.314Z,44.48
2019-05-03T16:59:50.409Z,44.69
2019-05-03T17:00:50.501Z,44.59
2019-05-03T17:01:50.597Z,44.59
2019-05-03T17:02:50.687Z,44.59
2019-05-03T17:03:50.781Z,44.59
2019-05-03T17:04:50.874Z,44.57
2019-05-03T17:05:50.969Z,44.38
2019-05-03T17:06:51.060Z,45.05
2019-05-03T17:07:51.153Z,45.05
2019-05-03T17:08:51.246Z,45.43
2019-05-03T17:09:51.341Z,45.22
2019-05-03T17:10:51.433Z,45.79
2019-05-03T17:11:51.530Z,46.27
2019-05-03T17:12:51.623Z,46.27
2019-05-03T17:13:51.718Z,46.75
2019-05-03T17:14:51.813Z,46.82
2019-05-03T17:15:51.904Z,47.39
2019-05-03T17:16:52.002Z,47.87
2019-05-03T17:17:52.096Z,47.61
2019-05-03T17:18:52.194Z,47.13
2019-05-03T17:19:52.286Z,47.13
2019-05-03T17:20:52.380Z,47.13
2019-05-03T17:21:52.477Z,47.23
2019-05-03T17:22:52.574Z,47.32
2019-05-03T17:23:52.659Z,47.11
2019-05-03T17:24:52.753Z,47.18
2019-05-03T17:25:52.846Z,48.35
2019-05-03T17:26:52.941Z,47.75
2019-05-03T17:27:54.277Z,48.04
2019-05-03T17:28:55.223Z,49.09
2019-05-03T17:29:55.187Z,48.90
2019-05-03T17:30:55.192Z,48.71
2019-05-03T17:31:55.042Z,49.76
2019-05-03T17:32:55.090Z,49.88
2019-05-03T17:33:56.164Z,49.30
2019-05-03T17:34:54.892Z,49.40
2019-05-03T17:35:54.467Z,47.94
2019-05-03T17:36:54.494Z,47.94
2019-05-03T17:37:54.609Z,48.44
2019-05-03T17:38:55.129Z,49.11
2019-05-03T17:39:54.731Z,48.73
2019-05-03T17:40:54.930Z,48.35
2019-05-03T17:41:54.700Z,47.97
2019-05-03T17:42:54.791Z,47.87
2019-05-03T17:43:54.617Z,47.87
2019-05-03T17:44:54.663Z,47.87
2019-05-03T17:45:55.080Z,48.16
2019-05-03T17:46:54.951Z,47.87
2019-05-03T17:47:54.975Z,48.54
2019-05-03T17:48:55.013Z,49.30
2019-05-03T17:49:55.107Z,49.09
2019-05-03T17:50:55.231Z,48.73
2019-05-03T17:51:55.515Z,49.40
2019-05-03T17:52:55.389Z,49.40
2019-05-03T17:53:55.488Z,48.44
2019-05-03T17:54:55.577Z,49.28
2019-05-03T17:55:55.682Z,48.71
2019-05-03T17:56:55.759Z,48.90
2019-05-03T17:57:55.857Z,49.09
2019-05-03T17:58:55.948Z,49.28
2019-05-03T17:59:56.040Z,49.57
2019-05-03T18:00:56.251Z,50.62
2019-05-03T18:01:56.223Z,50.90
2019-05-03T18:02:56.318Z,51.38
2019-05-03T18:04:05.642Z,52.81
2019-05-03T18:04:56.508Z,52.91
2019-05-03T18:05:56.606Z,53.77
2019-05-03T18:06:56.697Z,53.67
2019-05-03T18:07:56.791Z,53.58
2019-05-03T18:08:56.885Z,54.25
2019-05-03T18:09:56.981Z,54.91
2019-05-03T18:10:57.071Z,54.15
2019-05-03T18:11:57.161Z,55.20
2019-05-03T18:12:57.248Z,55.30
2019-05-03T18:13:57.333Z,54.53
2019-05-03T18:14:57.436Z,53.93
2019-05-03T18:15:57.522Z,53.84
2019-05-03T18:16:57.617Z,54.41
2019-05-03T18:17:57.712Z,54.79
2019-05-03T18:18:57.806Z,54.89
2019-05-03T18:19:57.899Z,54.79
2019-05-03T18:20:57.992Z,54.89
2019-05-03T18:21:58.082Z,54.86
2019-05-03T18:22:58.174Z,55.43
2019-05-03T18:23:58.273Z,56.20
2019-05-03T18:24:58.364Z,56.48
2019-05-03T18:25:58.453Z,56.38
2019-05-03T18:26:58.552Z,56.20
2019-05-03T18:27:58.646Z,56.20
2019-05-03T18:28:58.740Z,56.58
2019-05-03T18:29:58.834Z,57.34